Monument Valley, Utah
Current Conditions -  °F | °C
As of 5:55 PM on Wednesday 22 Oct 2014 (Local Time) from KBDG Reporting Station
Clear Clear  
Wind Chill: 67°   Ceiling: Unl
Heat Index: 67°   Visibility: 10mi
Dew Point: 31°   Wind: 9mph
Humidity: 26%   Direction: 230°SW
Pressure: 30.23"   Gusts: NA
Location:  37.1°N, 110.32°W
Report Text: KBDG 222355Z AUTO 23008KT 10SM CLR 19/M01 A3023 RMK AO1 T01921007 10214 20023
Loading
Personal Weather Stations






























Interactive Weather Map
Tropical Storm Tracking
New forecast layout! Learn more

10-Day Weather Forecast

Advertisements
Track Severe Weather on mobile